sensor_id;sensor_type;location;lat;lon;timestamp;pressure;altitude;pressure_sealevel;temperature;humidity
74893;BME280;63446;56.272;43.922;2022-11-20T00:00:54;101341.31;;;-5.04;65.81
74893;BME280;63446;56.272;43.922;2022-11-20T00:03:20;101330.19;;;-5.04;65.90
74893;BME280;63446;56.272;43.922;2022-11-20T00:05:46;101342.28;;;-5.05;65.81
74893;BME280;63446;56.272;43.922;2022-11-20T00:08:12;101345.13;;;-5.08;66.00
74893;BME280;63446;56.272;43.922;2022-11-20T00:10:41;101342.28;;;-5.05;65.82
74893;BME280;63446;56.272;43.922;2022-11-20T00:13:07;101334.03;;;-5.08;66.02
74893;BME280;63446;56.272;43.922;2022-11-20T00:15:33;101326.28;;;-5.08;66.03
74893;BME280;63446;56.272;43.922;2022-11-20T00:17:59;101346.53;;;-5.13;66.16
74893;BME280;63446;56.272;43.922;2022-11-20T00:20:25;101331.06;;;-5.13;66.09
74893;BME280;63446;56.272;43.922;2022-11-20T00:22:51;101325.09;;;-5.14;65.96
74893;BME280;63446;56.272;43.922;2022-11-20T00:25:18;101338.38;;;-5.09;65.90
74893;BME280;63446;56.272;43.922;2022-11-20T00:27:43;101343.69;;;-5.10;66.18
74893;BME280;63446;56.272;43.922;2022-11-20T00:30:09;101324.00;;;-5.11;66.19
74893;BME280;63446;56.272;43.922;2022-11-20T00:32:35;101334.44;;;-5.13;66.26
74893;BME280;63446;56.272;43.922;2022-11-20T00:35:01;101317.75;;;-5.09;66.17
74893;BME280;63446;56.272;43.922;2022-11-20T00:37:26;101324.81;;;-5.11;66.26
74893;BME280;63446;56.272;43.922;2022-11-20T00:39:52;101329.03;;;-5.10;66.22
74893;BME280;63446;56.272;43.922;2022-11-20T00:42:18;101319.78;;;-5.12;66.14
74893;BME280;63446;56.272;43.922;2022-11-20T00:44:44;101327.16;;;-5.18;66.28
74893;BME280;63446;56.272;43.922;2022-11-20T00:47:10;101335.00;;;-5.19;66.33
74893;BME280;63446;56.272;43.922;2022-11-20T00:49:36;101326.03;;;-5.15;66.08
74893;BME280;63446;56.272;43.922;2022-11-20T00:52:01;101329.44;;;-5.14;66.18
74893;BME280;63446;56.272;43.922;2022-11-20T00:54:28;101329.44;;;-5.14;66.01
74893;BME280;63446;56.272;43.922;2022-11-20T00:56:53;101336.22;;;-5.13;66.26
74893;BME280;63446;56.272;43.922;2022-11-20T00:59:19;101344.91;;;-5.14;66.29
74893;BME280;63446;56.272;43.922;2022-11-20T01:01:45;101327.84;;;-5.25;66.26
74893;BME280;63446;56.272;43.922;2022-11-20T01:04:11;101315.63;;;-5.23;66.30
74893;BME280;63446;56.272;43.922;2022-11-20T01:06:37;101327.06;;;-5.26;66.38
74893;BME280;63446;56.272;43.922;2022-11-20T01:09:07;101320.25;;;-5.27;66.22
74893;BME280;63446;56.272;43.922;2022-11-20T01:11:35;101303.22;;;-5.37;66.52
74893;BME280;63446;56.272;43.922;2022-11-20T01:14:05;101319.78;;;-5.40;66.50
74893;BME280;63446;56.272;43.922;2022-11-20T01:16:36;101318.97;;;-5.41;66.37
74893;BME280;63446;56.272;43.922;2022-11-20T01:19:04;101307.59;;;-5.48;66.34
74893;BME280;63446;56.272;43.922;2022-11-20T01:21:40;101307.31;;;-5.45;66.32
74893;BME280;63446;56.272;43.922;2022-11-20T01:24:12;101310.69;;;-5.44;66.44
74893;BME280;63446;56.272;43.922;2022-11-20T01:26:39;101322.50;;;-5.42;66.38
74893;BME280;63446;56.272;43.922;2022-11-20T01:29:07;101322.78;;;-5.45;66.66
74893;BME280;63446;56.272;43.922;2022-11-20T01:31:36;101319.78;;;-5.50;66.63
74893;BME280;63446;56.272;43.922;2022-11-20T01:34:14;101328.06;;;-5.46;66.34
74893;BME280;63446;56.272;43.922;2022-11-20T01:36:41;101339.75;;;-5.52;66.45
74893;BME280;63446;56.272;43.922;2022-11-20T01:39:11;101345.53;;;-5.50;66.57
74893;BME280;63446;56.272;43.922;2022-11-20T01:41:38;101331.59;;;-5.47;66.58
74893;BME280;63446;56.272;43.922;2022-11-20T01:44:47;101337.97;;;-5.51;66.60
74893;BME280;63446;56.272;43.922;2022-11-20T01:47:17;101342.47;;;-5.53;66.50
74893;BME280;63446;56.272;43.922;2022-11-20T01:49:56;101327.66;;;-5.51;66.49
74893;BME280;63446;56.272;43.922;2022-11-20T01:52:35;101318.75;;;-5.57;66.64
74893;BME280;63446;56.272;43.922;2022-11-20T01:55:09;101330.13;;;-5.59;66.75
74893;BME280;63446;56.272;43.922;2022-11-20T01:57:38;101323.50;;;-5.62;66.71
74893;BME280;63446;56.272;43.922;2022-11-20T02:00:11;101323.38;;;-5.60;66.67
74893;BME280;63446;56.272;43.922;2022-11-20T02:02:41;101321.59;;;-5.60;66.46
74893;BME280;63446;56.272;43.922;2022-11-20T02:05:36;101322.69;;;-5.62;66.48
74893;BME280;63446;56.272;43.922;2022-11-20T02:08:05;101293.28;;;-5.70;66.53
74893;BME280;63446;56.272;43.922;2022-11-20T02:10:33;101304.81;;;-5.64;66.51
74893;BME280;63446;56.272;43.922;2022-11-20T02:12:59;101303.69;;;-5.61;66.68
74893;BME280;63446;56.272;43.922;2022-11-20T02:15:44;101306.56;;;-5.65;66.77
74893;BME280;63446;56.272;43.922;2022-11-20T02:18:11;101296.66;;;-5.69;66.75
74893;BME280;63446;56.272;43.922;2022-11-20T02:20:42;101285.81;;;-5.73;66.81
74893;BME280;63446;56.272;43.922;2022-11-20T02:23:12;101290.16;;;-5.73;66.63
74893;BME280;63446;56.272;43.922;2022-11-20T02:25:41;101294.25;;;-5.71;66.61
74893;BME280;63446;56.272;43.922;2022-11-20T02:28:08;101288.94;;;-5.69;66.79
74893;BME280;63446;56.272;43.922;2022-11-20T02:30:34;101283.50;;;-5.66;66.64
74893;BME280;63446;56.272;43.922;2022-11-20T02:33:00;101297.34;;;-5.67;66.79
74893;BME280;63446;56.272;43.922;2022-11-20T02:37:55;101300.84;;;-5.58;66.76
74893;BME280;63446;56.272;43.922;2022-11-20T02:40:22;101307.22;;;-5.53;66.93
74893;BME280;63446;56.272;43.922;2022-11-20T02:42:52;101303.81;;;-5.53;66.97
74893;BME280;63446;56.272;43.922;2022-11-20T02:45:18;101292.28;;;-5.49;66.86
74893;BME280;63446;56.272;43.922;2022-11-20T02:47:43;101299.72;;;-5.46;66.85
74893;BME280;63446;56.272;43.922;2022-11-20T02:50:10;101294.56;;;-5.46;66.88
74893;BME280;63446;56.272;43.922;2022-11-20T02:52:36;101288.59;;;-5.47;66.83
74893;BME280;63446;56.272;43.922;2022-11-20T02:55:02;101293.75;;;-5.47;66.73
74893;BME280;63446;56.272;43.922;2022-11-20T02:57:29;101300.03;;;-5.49;66.64
74893;BME280;63446;56.272;43.922;2022-11-20T02:59:55;101308.16;;;-5.54;66.77
74893;BME280;63446;56.272;43.922;2022-11-20T03:02:21;101301.66;;;-5.58;66.76
74893;BME280;63446;56.272;43.922;2022-11-20T03:04:46;101307.88;;;-5.51;66.67
74893;BME280;63446;56.272;43.922;2022-11-20T03:07:12;101308.56;;;-5.49;66.60
74893;BME280;63446;56.272;43.922;2022-11-20T03:09:39;101308.13;;;-5.44;66.63
74893;BME280;63446;56.272;43.922;2022-11-20T03:12:04;101307.84;;;-5.41;66.72
74893;BME280;63446;56.272;43.922;2022-11-20T03:14:31;101309.19;;;-5.37;66.75
74893;BME280;63446;56.272;43.922;2022-11-20T03:16:57;101300.22;;;-5.33;66.77
74893;BME280;63446;56.272;43.922;2022-11-20T03:19:22;101300.59;;;-5.28;66.66
74893;BME280;63446;56.272;43.922;2022-11-20T03:21:48;101305.31;;;-5.23;66.83
74893;BME280;63446;56.272;43.922;2022-11-20T03:24:14;101295.53;;;-5.20;66.64
74893;BME280;63446;56.272;43.922;2022-11-20T03:26:41;101295.94;;;-5.14;66.86
74893;BME280;63446;56.272;43.922;2022-11-20T03:29:07;101294.72;;;-5.10;66.51
74893;BME280;63446;56.272;43.922;2022-11-20T03:31:38;101290.88;;;-5.06;66.48
74893;BME280;63446;56.272;43.922;2022-11-20T03:34:09;101289.13;;;-5.06;66.49
74893;BME280;63446;56.272;43.922;2022-11-20T03:36:40;101285.56;;;-5.05;66.66
74893;BME280;63446;56.272;43.922;2022-11-20T03:39:06;101278.00;;;-5.06;66.49
74893;BME280;63446;56.272;43.922;2022-11-20T03:41:36;101283.81;;;-5.04;66.38
74893;BME280;63446;56.272;43.922;2022-11-20T03:44:06;101277.84;;;-5.05;66.17
74893;BME280;63446;56.272;43.922;2022-11-20T03:46:32;101285.84;;;-5.08;66.17
74893;BME280;63446;56.272;43.922;2022-11-20T03:48:59;101278.72;;;-5.14;66.31
74893;BME280;63446;56.272;43.922;2022-11-20T03:51:27;101281.28;;;-5.14;66.13
74893;BME280;63446;56.272;43.922;2022-11-20T03:53:55;101287.09;;;-5.12;66.06
74893;BME280;63446;56.272;43.922;2022-11-20T03:56:24;101299.19;;;-5.12;66.17
74893;BME280;63446;56.272;43.922;2022-11-20T03:58:50;101292.53;;;-5.15;66.14
74893;BME280;63446;56.272;43.922;2022-11-20T04:01:20;101294.47;;;-5.17;66.03
74893;BME280;63446;56.272;43.922;2022-11-20T04:03:46;101298.94;;;-5.19;66.08
74893;BME280;63446;56.272;43.922;2022-11-20T04:06:18;101304.78;;;-5.27;65.90
74893;BME280;63446;56.272;43.922;2022-11-20T04:08:44;101301.03;;;-5.32;65.82
74893;BME280;63446;56.272;43.922;2022-11-20T04:11:16;101297.78;;;-5.34;65.74
74893;BME280;63446;56.272;43.922;2022-11-20T04:13:47;101301.91;;;-5.42;65.67
74893;BME280;63446;56.272;43.922;2022-11-20T04:16:14;101296.06;;;-5.44;65.60
74893;BME280;63446;56.272;43.922;2022-11-20T04:18:39;101300.13;;;-5.51;65.69
74893;BME280;63446;56.272;43.922;2022-11-20T04:21:06;101293.53;;;-5.53;65.54
74893;BME280;63446;56.272;43.922;2022-11-20T04:23:33;101296.50;;;-5.58;65.72
74893;BME280;63446;56.272;43.922;2022-11-20T04:26:09;101303.03;;;-5.73;65.49
74893;BME280;63446;56.272;43.922;2022-11-20T04:28:37;101290.16;;;-5.73;65.51
74893;BME280;63446;56.272;43.922;2022-11-20T04:31:07;101293.44;;;-5.71;65.63
74893;BME280;63446;56.272;43.922;2022-11-20T04:33:34;101279.88;;;-5.73;65.65
74893;BME280;63446;56.272;43.922;2022-11-20T04:36:02;101294.13;;;-5.79;65.68
74893;BME280;63446;56.272;43.922;2022-11-20T04:38:28;101278.16;;;-5.82;65.63
74893;BME280;63446;56.272;43.922;2022-11-20T04:41:00;101271.06;;;-5.80;65.63
74893;BME280;63446;56.272;43.922;2022-11-20T04:43:27;101281.25;;;-5.79;65.82
74893;BME280;63446;56.272;43.922;2022-11-20T04:45:55;101285.16;;;-5.75;65.91
74893;BME280;63446;56.272;43.922;2022-11-20T04:48:21;101294.25;;;-5.71;66.14
74893;BME280;63446;56.272;43.922;2022-11-20T04:50:47;101280.56;;;-5.71;65.87
74893;BME280;63446;56.272;43.922;2022-11-20T04:53:13;101290.59;;;-5.68;65.90
74893;BME280;63446;56.272;43.922;2022-11-20T04:55:40;101293.81;;;-5.66;65.79
74893;BME280;63446;56.272;43.922;2022-11-20T04:58:06;101282.72;;;-5.67;65.99
74893;BME280;63446;56.272;43.922;2022-11-20T05:00:31;101278.38;;;-5.66;65.97
74893;BME280;63446;56.272;43.922;2022-11-20T05:02:57;101281.34;;;-5.61;65.88
74893;BME280;63446;56.272;43.922;2022-11-20T05:05:23;101283.63;;;-5.58;65.87
74893;BME280;63446;56.272;43.922;2022-11-20T05:07:48;101291.06;;;-5.55;65.71
74893;BME280;63446;56.272;43.922;2022-11-20T05:10:15;101285.91;;;-5.55;65.81
74893;BME280;63446;56.272;43.922;2022-11-20T05:12:41;101293.53;;;-5.53;65.95
74893;BME280;63446;56.272;43.922;2022-11-20T05:15:07;101284.03;;;-5.53;65.76
74893;BME280;63446;56.272;43.922;2022-11-20T05:17:33;101292.94;;;-5.47;65.78
74893;BME280;63446;56.272;43.922;2022-11-20T05:20:00;101295.41;;;-5.46;65.74
74893;BME280;63446;56.272;43.922;2022-11-20T05:22:26;101290.38;;;-5.47;65.67
74893;BME280;63446;56.272;43.922;2022-11-20T05:24:52;101284.25;;;-5.46;65.63
74893;BME280;63446;56.272;43.922;2022-11-20T05:27:18;101279.63;;;-5.43;65.63
74893;BME280;63446;56.272;43.922;2022-11-20T05:29:43;101283.84;;;-5.42;65.61
74893;BME280;63446;56.272;43.922;2022-11-20T05:32:10;101275.97;;;-5.40;65.67
74893;BME280;63446;56.272;43.922;2022-11-20T05:34:36;101279.63;;;-5.43;65.58
74893;BME280;63446;56.272;43.922;2022-11-20T05:37:02;101284.50;;;-5.40;65.64
74893;BME280;63446;56.272;43.922;2022-11-20T05:39:28;101290.75;;;-5.42;65.46
74893;BME280;63446;56.272;43.922;2022-11-20T05:41:54;101279.63;;;-5.43;65.45
74893;BME280;63446;56.272;43.922;2022-11-20T05:44:40;101283.19;;;-5.44;65.57
74893;BME280;63446;56.272;43.922;2022-11-20T05:47:06;101288.06;;;-5.41;65.50
74893;BME280;63446;56.272;43.922;2022-11-20T05:49:32;101285.31;;;-5.39;65.52
74893;BME280;63446;56.272;43.922;2022-11-20T05:51:58;101285.19;;;-5.37;65.59
74893;BME280;63446;56.272;43.922;2022-11-20T05:54:24;101285.84;;;-5.35;65.77
74893;BME280;63446;56.272;43.922;2022-11-20T05:56:49;101293.47;;;-5.34;65.54
74893;BME280;63446;56.272;43.922;2022-11-20T05:59:15;101287.09;;;-5.40;65.43
74893;BME280;63446;56.272;43.922;2022-11-20T06:01:42;101291.28;;;-5.38;65.28
74893;BME280;63446;56.272;43.922;2022-11-20T06:04:07;101285.31;;;-5.39;65.30
74893;BME280;63446;56.272;43.922;2022-11-20T06:06:33;101295.78;;;-5.41;65.35
74893;BME280;63446;56.272;43.922;2022-11-20T06:08:59;101298.78;;;-5.45;65.25
74893;BME280;63446;56.272;43.922;2022-11-20T06:11:25;101292.13;;;-5.48;65.40
74893;BME280;63446;56.272;43.922;2022-11-20T06:13:51;101290.38;;;-5.47;65.28
74893;BME280;63446;56.272;43.922;2022-11-20T06:16:18;101294.72;;;-5.48;65.42
74893;BME280;63446;56.272;43.922;2022-11-20T06:18:46;101279.69;;;-5.52;65.34
74893;BME280;63446;56.272;43.922;2022-11-20T06:21:14;101281.16;;;-5.50;65.36
74893;BME280;63446;56.272;43.922;2022-11-20T06:23:41;101280.50;;;-5.52;65.24
74893;BME280;63446;56.272;43.922;2022-11-20T06:26:12;101275.63;;;-5.55;65.36
74893;BME280;63446;56.272;43.922;2022-11-20T06:28:39;101286.31;;;-5.50;65.33
74893;BME280;63446;56.272;43.922;2022-11-20T06:31:06;101294.03;;;-5.50;65.24
74893;BME280;63446;56.272;43.922;2022-11-20T06:33:33;101286.72;;;-5.45;65.08
74893;BME280;63446;56.272;43.922;2022-11-20T06:36:00;101285.09;;;-5.46;65.11
74893;BME280;63446;56.272;43.922;2022-11-20T06:38:27;101284.78;;;-5.43;65.17
74893;BME280;63446;56.272;43.922;2022-11-20T06:40:53;101286.44;;;-5.42;65.29
74893;BME280;63446;56.272;43.922;2022-11-20T06:43:21;101283.56;;;-5.38;65.35
74893;BME280;63446;56.272;43.922;2022-11-20T06:45:52;101284.78;;;-5.33;65.31
74893;BME280;63446;56.272;43.922;2022-11-20T06:48:19;101285.28;;;-5.29;65.29
74893;BME280;63446;56.272;43.922;2022-11-20T06:50:44;101279.72;;;-5.25;65.11
74893;BME280;63446;56.272;43.922;2022-11-20T06:53:10;101278.31;;;-5.19;65.10
74893;BME280;63446;56.272;43.922;2022-11-20T06:55:35;101283.19;;;-5.16;65.08
74893;BME280;63446;56.272;43.922;2022-11-20T06:58:01;101285.47;;;-5.13;65.12
74893;BME280;63446;56.272;43.922;2022-11-20T07:00:27;101285.84;;;-5.08;64.91
74893;BME280;63446;56.272;43.922;2022-11-20T07:02:53;101290.59;;;-5.03;64.90
74893;BME280;63446;56.272;43.922;2022-11-20T07:05:19;101296.56;;;-5.03;64.91
74893;BME280;63446;56.272;43.922;2022-11-20T07:07:45;101293.03;;;-5.02;64.84
74893;BME280;63446;56.272;43.922;2022-11-20T07:10:11;101285.13;;;-5.00;64.57
74893;BME280;63446;56.272;43.922;2022-11-20T07:12:38;101278.09;;;-4.98;64.54
74893;BME280;63446;56.272;43.922;2022-11-20T07:15:04;101283.78;;;-4.95;64.75
74893;BME280;63446;56.272;43.922;2022-11-20T07:17:31;101288.31;;;-4.88;64.67
74893;BME280;63446;56.272;43.922;2022-11-20T07:19:57;101284.09;;;-4.80;64.84
74893;BME280;63446;56.272;43.922;2022-11-20T07:22:26;101281.59;;;-4.72;64.88
74893;BME280;63446;56.272;43.922;2022-11-20T07:24:52;101291.19;;;-4.64;64.64
74893;BME280;63446;56.272;43.922;2022-11-20T07:27:17;101301.72;;;-4.57;64.23
74893;BME280;63446;56.272;43.922;2022-11-20T07:29:45;101298.72;;;-4.53;64.35
74893;BME280;63446;56.272;43.922;2022-11-20T07:32:11;101311.28;;;-4.50;64.30
74893;BME280;63446;56.272;43.922;2022-11-20T07:34:36;101306.81;;;-4.48;64.34
74893;BME280;63446;56.272;43.922;2022-11-20T07:37:02;101321.19;;;-4.45;64.30
74893;BME280;63446;56.272;43.922;2022-11-20T07:39:28;101323.91;;;-4.47;64.15
74893;BME280;63446;56.272;43.922;2022-11-20T07:41:54;101327.00;;;-4.43;64.30
74893;BME280;63446;56.272;43.922;2022-11-20T07:44:20;101326.03;;;-4.42;64.35
74893;BME280;63446;56.272;43.922;2022-11-20T07:46:46;101335.25;;;-4.39;64.11
74893;BME280;63446;56.272;43.922;2022-11-20T07:49:11;101338.28;;;-4.44;64.13
74893;BME280;63446;56.272;43.922;2022-11-20T07:51:38;101341.03;;;-4.46;64.03
74893;BME280;63446;56.272;43.922;2022-11-20T07:54:04;101333.06;;;-4.52;63.99
74893;BME280;63446;56.272;43.922;2022-11-20T07:56:31;101338.22;;;-4.52;64.06
74893;BME280;63446;56.272;43.922;2022-11-20T07:58:57;101329.78;;;-4.54;63.96
74893;BME280;63446;56.272;43.922;2022-11-20T08:01:23;101337.00;;;-4.58;64.04
74893;BME280;63446;56.272;43.922;2022-11-20T08:03:49;101331.72;;;-4.56;63.88
74893;BME280;63446;56.272;43.922;2022-11-20T08:06:14;101334.59;;;-4.59;63.83
74893;BME280;63446;56.272;43.922;2022-11-20T08:08:40;101331.19;;;-4.60;63.83
74893;BME280;63446;56.272;43.922;2022-11-20T08:11:06;101326.69;;;-4.58;63.80
74893;BME280;63446;56.272;43.922;2022-11-20T08:13:51;101334.13;;;-4.55;63.87
74893;BME280;63446;56.272;43.922;2022-11-20T08:16:35;101340.78;;;-4.52;63.93
74893;BME280;63446;56.272;43.922;2022-11-20T08:19:01;101338.56;;;-4.47;63.98
74893;BME280;63446;56.272;43.922;2022-11-20T08:21:27;101345.88;;;-4.43;64.08
74893;BME280;63446;56.272;43.922;2022-11-20T08:23:58;101339.78;;;-4.42;63.92
74893;BME280;63446;56.272;43.922;2022-11-20T08:26:24;101350.16;;;-4.33;64.00
74893;BME280;63446;56.272;43.922;2022-11-20T08:28:57;101370.22;;;-4.27;64.07
74893;BME280;63446;56.272;43.922;2022-11-20T08:31:24;101360.94;;;-4.20;64.28
74893;BME280;63446;56.272;43.922;2022-11-20T08:33:51;101374.22;;;-4.15;64.10
74893;BME280;63446;56.272;43.922;2022-11-20T08:36:17;101372.81;;;-4.09;63.99
74893;BME280;63446;56.272;43.922;2022-11-20T08:38:48;101365.41;;;-4.04;64.13
74893;BME280;63446;56.272;43.922;2022-11-20T08:41:14;101376.94;;;-3.99;64.14
74893;BME280;63446;56.272;43.922;2022-11-20T08:43:53;101377.47;;;-3.95;64.05
74893;BME280;63446;56.272;43.922;2022-11-20T08:46:19;101372.81;;;-3.91;64.04
74893;BME280;63446;56.272;43.922;2022-11-20T08:48:46;101374.78;;;-3.85;64.15
74893;BME280;63446;56.272;43.922;2022-11-20T08:51:13;101374.50;;;-3.82;63.90
74893;BME280;63446;56.272;43.922;2022-11-20T08:53:40;101365.66;;;-3.80;64.01
74893;BME280;63446;56.272;43.922;2022-11-20T08:56:07;101370.34;;;-3.75;63.98
74893;BME280;63446;56.272;43.922;2022-11-20T08:58:33;101357.16;;;-3.72;64.07
74893;BME280;63446;56.272;43.922;2022-11-20T09:01:00;101352.16;;;-3.65;64.10
74893;BME280;63446;56.272;43.922;2022-11-20T09:03:26;101350.41;;;-3.65;63.95
74893;BME280;63446;56.272;43.922;2022-11-20T09:06:00;101343.59;;;-3.66;63.67
74893;BME280;63446;56.272;43.922;2022-11-20T09:08:27;101358.16;;;-3.65;63.72
74893;BME280;63446;56.272;43.922;2022-11-20T09:10:54;101351.34;;;-3.66;63.67
74893;BME280;63446;56.272;43.922;2022-11-20T09:13:21;101350.41;;;-3.65;63.75
74893;BME280;63446;56.272;43.922;2022-11-20T09:15:53;101355.13;;;-3.60;63.79
74893;BME280;63446;56.272;43.922;2022-11-20T09:18:19;101356.91;;;-3.61;63.64
74893;BME280;63446;56.272;43.922;2022-11-20T09:20:45;101360.44;;;-3.62;63.37
74893;BME280;63446;56.272;43.922;2022-11-20T09:23:11;101358.81;;;-3.63;63.29
74893;BME280;63446;56.272;43.922;2022-11-20T09:25:36;101361.97;;;-3.69;63.38
74893;BME280;63446;56.272;43.922;2022-11-20T09:28:03;101362.16;;;-3.71;63.48
74893;BME280;63446;56.272;43.922;2022-11-20T09:30:29;101357.16;;;-3.72;63.47
74893;BME280;63446;56.272;43.922;2022-11-20T09:32:56;101345.84;;;-3.71;63.50
74893;BME280;63446;56.272;43.922;2022-11-20T09:35:22;101347.44;;;-3.70;63.78
74893;BME280;63446;56.272;43.922;2022-11-20T09:37:48;101347.97;;;-3.66;63.63
74893;BME280;63446;56.272;43.922;2022-11-20T09:40:23;101335.84;;;-3.66;63.62
74893;BME280;63446;56.272;43.922;2022-11-20T09:43:18;101338.31;;;-3.64;63.49
74893;BME280;63446;56.272;43.922;2022-11-20T09:51:34;101338.59;;;-3.67;63.38
74893;BME280;63446;56.272;43.922;2022-11-20T09:54:29;101351.66;;;-3.69;63.44
74893;BME280;63446;56.272;43.922;2022-11-20T09:56:59;101346.50;;;-3.69;63.56
74893;BME280;63446;56.272;43.922;2022-11-20T10:02:02;101346.19;;;-3.66;63.67
74893;BME280;63446;56.272;43.922;2022-11-20T10:04:43;101333.28;;;-3.66;63.52
74893;BME280;63446;56.272;43.922;2022-11-20T10:07:18;101327.47;;;-3.68;63.54
74893;BME280;63446;56.272;43.922;2022-11-20T10:09:55;101331.66;;;-3.67;63.38
74893;BME280;63446;56.272;43.922;2022-11-20T10:12:31;101330.84;;;-3.67;63.27
74893;BME280;63446;56.272;43.922;2022-11-20T10:26:53;101344.25;;;-3.90;63.39
74893;BME280;63446;56.272;43.922;2022-11-20T10:29:42;101344.53;;;-3.93;63.41
74893;BME280;63446;56.272;43.922;2022-11-20T10:32:15;101344.69;;;-3.95;63.36
74893;BME280;63446;56.272;43.922;2022-11-20T10:37:37;101350.50;;;-3.93;63.33
74893;BME280;63446;56.272;43.922;2022-11-20T10:40:40;101351.47;;;-3.94;63.21
74893;BME280;63446;56.272;43.922;2022-11-20T10:43:24;101355.84;;;-3.94;63.14
74893;BME280;63446;56.272;43.922;2022-11-20T10:48:22;101335.13;;;-4.02;63.28
74893;BME280;63446;56.272;43.922;2022-11-20T10:56:09;101341.84;;;-4.09;63.36
74893;BME280;63446;56.272;43.922;2022-11-20T10:58:52;101344.56;;;-4.11;63.45
74893;BME280;63446;56.272;43.922;2022-11-20T11:01:24;101348.09;;;-4.12;63.41
74893;BME280;63446;56.272;43.922;2022-11-20T11:03:52;101350.16;;;-4.15;63.47
74893;BME280;63446;56.272;43.922;2022-11-20T11:06:35;101345.16;;;-4.17;63.38
74893;BME280;63446;56.272;43.922;2022-11-20T11:09:11;101343.53;;;-4.18;63.44
74893;BME280;63446;56.272;43.922;2022-11-20T11:11:40;101335.50;;;-4.15;63.82
74893;BME280;63446;56.272;43.922;2022-11-20T11:14:11;101326.41;;;-4.19;63.53
74893;BME280;63446;56.272;43.922;2022-11-20T11:16:50;101341.16;;;-4.11;63.70
74893;BME280;63446;56.272;43.922;2022-11-20T11:19:16;101329.59;;;-4.07;63.58
74893;BME280;63446;56.272;43.922;2022-11-20T11:21:54;101320.09;;;-4.07;63.49
74893;BME280;63446;56.272;43.922;2022-11-20T11:24:24;101321.69;;;-4.06;63.51
74893;BME280;63446;56.272;43.922;2022-11-20T11:27:00;101313.78;;;-4.04;63.36
74893;BME280;63446;56.272;43.922;2022-11-20T11:29:32;101331.06;;;-4.05;63.54
74893;BME280;63446;56.272;43.922;2022-11-20T11:32:12;101337.53;;;-4.01;63.54
74893;BME280;63446;56.272;43.922;2022-11-20T11:34:39;101345.00;;;-3.98;63.70
74893;BME280;63446;56.272;43.922;2022-11-20T11:37:13;101344.41;;;-3.91;64.00
74893;BME280;63446;56.272;43.922;2022-11-20T11:39:41;101345.41;;;-3.84;63.99
74893;BME280;63446;56.272;43.922;2022-11-20T11:42:13;101353.25;;;-3.76;63.80
74893;BME280;63446;56.272;43.922;2022-11-20T11:44:45;101357.78;;;-3.70;63.88
74893;BME280;63446;56.272;43.922;2022-11-20T11:47:32;101357.19;;;-3.64;63.69
74893;BME280;63446;56.272;43.922;2022-11-20T11:52:48;101357.41;;;-3.57;63.91
74893;BME280;63446;56.272;43.922;2022-11-20T11:55:20;101361.44;;;-3.55;63.61
74893;BME280;63446;56.272;43.922;2022-11-20T12:00:21;101361.75;;;-3.58;63.58
74893;BME280;63446;56.272;43.922;2022-11-20T12:05:45;101367.06;;;-3.59;63.73
74893;BME280;63446;56.272;43.922;2022-11-20T12:13:50;101367.88;;;-3.59;63.91
74893;BME280;63446;56.272;43.922;2022-11-20T12:16:20;101372.06;;;-3.58;63.82
74893;BME280;63446;56.272;43.922;2022-11-20T12:18:49;101383.25;;;-3.57;64.03
74893;BME280;63446;56.272;43.922;2022-11-20T12:21:19;101384.69;;;-3.55;64.26
74893;BME280;63446;56.272;43.922;2022-11-20T12:27:00;101400.06;;;-3.53;64.00
74893;BME280;63446;56.272;43.922;2022-11-20T12:47:38;101394.88;;;-3.79;64.06
74893;BME280;63446;56.272;43.922;2022-11-20T12:52:57;101393.53;;;-3.83;64.45
74893;BME280;63446;56.272;43.922;2022-11-20T12:58:20;101402.91;;;-3.82;64.32
74893;BME280;63446;56.272;43.922;2022-11-20T13:01:02;101397.75;;;-3.82;64.49
74893;BME280;63446;56.272;43.922;2022-11-20T13:03:37;101412.25;;;-3.81;64.57
74893;BME280;63446;56.272;43.922;2022-11-20T13:06:16;101406.16;;;-3.80;64.42
74893;BME280;63446;56.272;43.922;2022-11-20T13:08:54;101410.38;;;-3.79;64.48
74893;BME280;63446;56.272;43.922;2022-11-20T13:14:42;101416.03;;;-3.76;64.69
74893;BME280;63446;56.272;43.922;2022-11-20T13:19:41;101408.94;;;-3.74;64.79
74893;BME280;63446;56.272;43.922;2022-11-20T13:22:08;101406.34;;;-3.74;64.68
74893;BME280;63446;56.272;43.922;2022-11-20T13:24:35;101413.97;;;-3.72;64.67
74893;BME280;63446;56.272;43.922;2022-11-20T13:29:26;101411.41;;;-3.72;64.56
74893;BME280;63446;56.272;43.922;2022-11-20T13:34:31;101409.22;;;-3.77;64.51
74893;BME280;63446;56.272;43.922;2022-11-20T13:36:58;101408.41;;;-3.77;64.43
74893;BME280;63446;56.272;43.922;2022-11-20T13:39:31;101420.69;;;-3.79;64.46
74893;BME280;63446;56.272;43.922;2022-11-20T13:45:26;101423.72;;;-3.84;64.32
74893;BME280;63446;56.272;43.922;2022-11-20T13:47:55;101430.00;;;-3.86;64.24
74893;BME280;63446;56.272;43.922;2022-11-20T13:50:40;101437.22;;;-3.90;64.26
74893;BME280;63446;56.272;43.922;2022-11-20T13:56:24;101436.94;;;-3.87;64.63
74893;BME280;63446;56.272;43.922;2022-11-20T13:59:02;101432.72;;;-3.88;64.48
74893;BME280;63446;56.272;43.922;2022-11-20T14:01:31;101424.31;;;-3.90;64.54
74893;BME280;63446;56.272;43.922;2022-11-20T14:03:58;101414.13;;;-3.91;64.61
74893;BME280;63446;56.272;43.922;2022-11-20T14:06:32;101418.63;;;-3.94;64.36
74893;BME280;63446;56.272;43.922;2022-11-20T14:09:01;101410.50;;;-3.99;64.35
74893;BME280;63446;56.272;43.922;2022-11-20T14:11:29;101423.56;;;-4.00;64.42
74893;BME280;63446;56.272;43.922;2022-11-20T14:14:03;101421.81;;;-4.00;64.71
74893;BME280;63446;56.272;43.922;2022-11-20T14:16:35;101426.66;;;-3.97;64.91
74893;BME280;63446;56.272;43.922;2022-11-20T14:21:52;101435.31;;;-3.88;65.06
74893;BME280;63446;56.272;43.922;2022-11-20T14:24:21;101430.78;;;-3.86;65.17